Terminal Aerodrome Forecast
Issued by NWS Atlanta, GA

Home | Current Version | Previous Version | Text Only | Print | Product List | Glossary On
Versions: 1 2 3 4 5 6 7 8 9 10 11 12 13 14 15 16 17 18 19 20 21 22 23 24 25 26 27 28 29 30 31 32 33 34 35
195
FTUS42 KFFC 032155 AAB
TAFATL
TAF AMD
KATL 032155Z 0322/0424 05005KT 6SM -RA OVC100
     FM040000 07006KT 6SM -SHRA OVC070
      TEMPO 0402/0406 4SM -RA BKN050
     FM040600 09009KT 6SM -RADZ OVC040
     FM041200 09014G20KT 6SM -RADZ BKN025
     FM041500 09014G20KT 5SM -RADZ BR BKN012
     FM041900 09012KT 4SM -RADZ BR OVC007=

USA.gov is the U.S. government's official web portal to all federal, state and local government web resources and services.